Weather at Ak-Chin Regional Airport

Public forecast

Using degrees Fahrenheit for public forecast. Weather courtesy of forecast.io.

Closest aviation weather report (METAR) to Ak-Chin Regional Airport

Closest report is Casa Grande Municipal Airport, 7.9 nm (14.7 km) ESE. Retrieved 2021/10/19 12:56 UTC (60 minutes ago):

KCGZ 191256Z AUTO 27003KT 10SM SCT050 14/05 A2995 RMK AO2 SLP133 T01390050

Closest aviation forecast (TAF) to Ak-Chin Regional Airport

Closest forecast is Phoenix–Mesa Gateway Airport, 23.2 nm (42.9 km) NE. Retrieved 2021/10/19 12:30 UTC (1 hour ago):

TAF KIWA 191128Z 1912/2012 12006KT P6SM SCT050 FM191700 18005KT P6SM FEW080 FEW120 FM192100 26006KT P6SM SKC FM200500 11005KT P6SM SCT200